createdAt,value
2022-10-11T00:02:03.689Z,13.82
2022-10-11T00:04:30.494Z,13.83
2022-10-11T00:06:57.272Z,13.86
2022-10-11T00:09:24.239Z,13.85
2022-10-11T00:11:51.090Z,13.85
2022-10-11T00:14:17.919Z,13.81
2022-10-11T00:16:44.862Z,13.82
2022-10-11T00:19:12.041Z,13.82
2022-10-11T00:21:39.567Z,13.80
2022-10-11T00:24:06.754Z,13.76
2022-10-11T00:26:33.589Z,13.77
2022-10-11T00:29:00.535Z,13.76
2022-10-11T00:31:29.897Z,13.78
2022-10-11T00:33:58.852Z,13.66
2022-10-11T00:36:26.424Z,13.74
2022-10-11T00:38:53.264Z,13.71
2022-10-11T00:41:20.073Z,13.70
2022-10-11T00:43:46.920Z,13.72
2022-10-11T00:46:13.694Z,13.68
2022-10-11T00:48:45.099Z,13.62
2022-10-11T00:51:32.654Z,13.55
2022-10-11T00:54:01.948Z,13.50
2022-10-11T00:56:32.929Z,13.49
2022-10-11T00:59:04.559Z,13.45
2022-10-11T01:01:31.792Z,13.42
2022-10-11T01:03:58.966Z,13.40
2022-10-11T01:06:26.138Z,13.35
2022-10-11T01:08:54.196Z,13.32
2022-10-11T01:11:25.855Z,13.32
2022-10-11T01:14:08.589Z,13.31
2022-10-11T01:16:35.363Z,13.27
2022-10-11T01:19:37.429Z,13.22
2022-10-11T01:22:24.396Z,13.20
2022-10-11T01:25:15.541Z,13.15
2022-10-11T01:27:45.309Z,13.13
2022-10-11T01:30:18.382Z,13.08
2022-10-11T01:33:11.324Z,13.02
2022-10-11T01:35:45.674Z,12.99
2022-10-11T01:38:20.998Z,12.93
2022-10-11T01:40:53.163Z,12.88
2022-10-11T01:43:22.036Z,12.86
2022-10-11T01:45:52.898Z,12.81
2022-10-11T01:48:20.121Z,12.76
2022-10-11T01:50:50.741Z,12.76
2022-10-11T01:53:23.279Z,12.73
2022-10-11T01:55:53.091Z,12.70
2022-10-11T01:58:25.227Z,12.68
2022-10-11T02:01:15.240Z,12.63
2022-10-11T02:03:51.157Z,12.65
2022-10-11T02:06:36.811Z,12.60
2022-10-11T02:09:08.487Z,12.62
2022-10-11T02:11:36.574Z,12.57
2022-10-11T02:14:06.456Z,12.56
2022-10-11T02:17:07.803Z,12.55
2022-10-11T02:19:44.055Z,12.52
2022-10-11T02:22:16.320Z,12.50
2022-10-11T02:24:48.997Z,12.44
2022-10-11T02:27:19.388Z,12.44
2022-10-11T02:29:48.895Z,12.41
2022-10-11T02:32:17.736Z,12.43
2022-10-11T02:34:54.112Z,12.42
2022-10-11T02:37:23.929Z,12.44
2022-10-11T02:39:54.088Z,12.46
2022-10-11T02:42:27.215Z,12.43
2022-10-11T02:45:01.446Z,12.49
2022-10-11T02:47:31.916Z,12.47
2022-10-11T02:50:00.254Z,12.49
2022-10-11T02:52:27.839Z,12.52
2022-10-11T02:54:54.716Z,12.49
2022-10-11T02:57:21.602Z,12.48
2022-10-11T02:59:48.407Z,12.45
2022-10-11T03:02:15.311Z,12.47
2022-10-11T03:04:42.107Z,12.49
2022-10-11T03:07:08.926Z,12.50
2022-10-11T03:09:35.756Z,12.47
2022-10-11T03:12:02.707Z,12.47
2022-10-11T03:14:29.525Z,12.48
2022-10-11T03:17:00.737Z,12.45
2022-10-11T03:19:39.073Z,12.47
2022-10-11T03:22:05.948Z,12.45
2022-10-11T03:24:32.705Z,12.43
2022-10-11T03:26:59.704Z,12.40
2022-10-11T03:29:26.516Z,12.42
2022-10-11T03:31:53.329Z,12.42
2022-10-11T03:34:21.095Z,12.43
2022-10-11T03:36:47.875Z,12.42
2022-10-11T03:39:14.764Z,12.39
2022-10-11T03:41:41.576Z,12.39
2022-10-11T03:44:08.415Z,12.34
2022-10-11T03:46:35.309Z,12.38
2022-10-11T03:49:02.240Z,12.34
2022-10-11T03:51:29.033Z,12.38
2022-10-11T03:53:55.845Z,12.36
2022-10-11T03:56:22.620Z,12.32
2022-10-11T03:58:49.579Z,12.37
2022-10-11T04:01:16.515Z,12.34
2022-10-11T04:03:43.456Z,12.37
2022-10-11T04:06:10.403Z,12.39
2022-10-11T04:08:37.224Z,12.37
2022-10-11T04:11:04.384Z,12.38
2022-10-11T04:13:31.375Z,12.38
2022-10-11T04:15:58.238Z,12.39
2022-10-11T04:18:25.135Z,12.39
2022-10-11T04:20:52.053Z,12.36
2022-10-11T04:23:18.942Z,12.39
2022-10-11T04:25:47.081Z,12.39
2022-10-11T04:28:14.258Z,12.41
2022-10-11T04:30:41.104Z,12.40
2022-10-11T04:33:07.901Z,12.34
2022-10-11T04:35:35.056Z,12.39
2022-10-11T04:38:01.879Z,12.35
2022-10-11T04:40:28.701Z,12.37
2022-10-11T04:42:55.585Z,12.39
2022-10-11T04:45:22.562Z,12.39
2022-10-11T04:47:49.345Z,12.35
2022-10-11T04:50:16.499Z,12.37
2022-10-11T04:52:43.512Z,12.40
2022-10-11T04:55:11.220Z,12.39
2022-10-11T04:57:38.169Z,12.34
2022-10-11T05:00:06.003Z,12.40
2022-10-11T05:02:32.908Z,12.33
2022-10-11T05:05:00.167Z,12.37
2022-10-11T05:07:26.971Z,12.36
2022-10-11T05:09:53.792Z,12.35
2022-10-11T05:12:20.686Z,12.30
2022-10-11T05:14:47.540Z,12.30
2022-10-11T05:17:14.386Z,12.34
2022-10-11T05:19:41.262Z,12.34
2022-10-11T05:22:08.290Z,12.38
2022-10-11T05:24:35.162Z,12.36
2022-10-11T05:27:03.579Z,12.38
2022-10-11T05:29:30.628Z,12.42
2022-10-11T05:31:57.816Z,12.46
2022-10-11T05:34:24.832Z,12.48
2022-10-11T05:36:51.802Z,12.48
2022-10-11T05:39:18.633Z,12.50
2022-10-11T05:41:45.465Z,12.48
2022-10-11T05:44:12.361Z,12.53
2022-10-11T05:46:39.309Z,12.62
2022-10-11T05:49:06.227Z,12.70
2022-10-11T05:51:33.001Z,12.75
2022-10-11T05:54:00.198Z,12.80
2022-10-11T05:56:27.129Z,12.89
2022-10-11T05:58:57.502Z,12.90
2022-10-11T06:01:31.081Z,12.92
2022-10-11T06:03:58.045Z,12.95
2022-10-11T06:06:36.899Z,12.98
2022-10-11T06:09:03.801Z,12.96
2022-10-11T06:11:30.779Z,12.91
2022-10-11T06:13:58.436Z,12.98
2022-10-11T06:16:25.658Z,12.93
2022-10-11T06:18:57.517Z,12.90
2022-10-11T06:21:25.136Z,12.89
2022-10-11T06:23:58.336Z,12.88
2022-10-11T06:26:28.123Z,12.89
2022-10-11T06:28:55.030Z,12.89
2022-10-11T06:31:21.951Z,12.95
2022-10-11T06:33:48.881Z,12.97
2022-10-11T06:36:16.833Z,13.00
2022-10-11T06:38:45.319Z,13.00
2022-10-11T06:41:27.626Z,13.02
2022-10-11T06:43:54.844Z,13.01
2022-10-11T06:46:24.187Z,13.01
2022-10-11T06:48:52.108Z,13.01
2022-10-11T06:51:21.811Z,13.00
2022-10-11T06:53:53.059Z,13.05
2022-10-11T06:56:19.992Z,13.00
2022-10-11T06:58:47.448Z,13.10
2022-10-11T07:01:21.376Z,13.13
2022-10-11T07:03:48.599Z,13.15
2022-10-11T07:06:18.560Z,13.17
2022-10-11T07:08:46.028Z,13.13
2022-10-11T07:11:15.314Z,13.17
2022-10-11T07:13:42.391Z,13.21
2022-10-11T07:16:12.463Z,13.24
2022-10-11T07:18:39.650Z,13.19
2022-10-11T07:21:10.639Z,13.18
2022-10-11T07:23:40.840Z,13.14
2022-10-11T07:26:10.328Z,13.15
2022-10-11T07:28:38.704Z,13.20
2022-10-11T07:31:11.828Z,13.20
2022-10-11T07:33:38.885Z,13.23
2022-10-11T07:36:07.508Z,13.32
2022-10-11T07:38:35.042Z,13.31
2022-10-11T07:41:06.203Z,13.38
2022-10-11T07:43:33.269Z,13.40
2022-10-11T07:46:04.868Z,13.42
2022-10-11T07:48:33.764Z,13.52
2022-10-11T07:51:04.983Z,13.58
2022-10-11T07:53:31.885Z,13.62
2022-10-11T07:56:02.575Z,13.61
2022-10-11T07:58:29.632Z,13.52
2022-10-11T08:00:57.088Z,13.54
2022-10-11T08:03:23.931Z,13.45
2022-10-11T08:05:52.364Z,13.55
2022-10-11T08:08:19.659Z,13.57
2022-10-11T08:10:46.638Z,13.66
2022-10-11T08:13:13.758Z,13.75
2022-10-11T08:15:40.649Z,13.82
2022-10-11T08:18:07.562Z,13.88
2022-10-11T08:20:34.608Z,13.91
2022-10-11T08:23:01.497Z,13.98
2022-10-11T08:25:28.340Z,13.95
2022-10-11T08:27:55.279Z,14.08
2022-10-11T08:30:22.393Z,14.12
2022-10-11T08:32:49.382Z,14.15
2022-10-11T08:35:16.322Z,14.17
2022-10-11T08:37:43.133Z,14.18
2022-10-11T08:40:17.329Z,14.14
2022-10-11T08:43:12.246Z,14.15
2022-10-11T08:45:39.025Z,14.16
2022-10-11T08:48:16.178Z,14.19
2022-10-11T08:50:46.646Z,14.19
2022-10-11T08:53:26.354Z,14.14
2022-10-11T08:55:55.091Z,14.11
2022-10-11T08:58:26.332Z,14.10
2022-10-11T09:00:55.836Z,14.14
2022-10-11T09:03:39.860Z,14.08
2022-10-11T09:06:30.800Z,14.09
2022-10-11T09:09:25.059Z,14.19
2022-10-11T09:12:40.702Z,14.25
2022-10-11T09:15:38.636Z,14.40
2022-10-11T09:18:23.149Z,14.51
2022-10-11T09:21:01.053Z,14.57
2022-10-11T09:23:46.583Z,14.62
2022-10-11T09:26:29.214Z,14.71
2022-10-11T09:29:01.655Z,14.79
2022-10-11T09:31:29.838Z,14.86
2022-10-11T09:34:00.366Z,14.92
2022-10-11T09:36:45.542Z,15.04
2022-10-11T09:39:36.670Z,15.15
2022-10-11T09:42:05.586Z,15.28
2022-10-11T09:44:45.375Z,15.38
2022-10-11T09:47:17.044Z,15.50
2022-10-11T09:49:52.205Z,15.62
2022-10-11T09:52:22.946Z,15.71
2022-10-11T09:54:54.607Z,15.71
2022-10-11T09:57:27.971Z,15.62
2022-10-11T10:00:08.704Z,15.73
2022-10-11T10:02:47.561Z,15.80
2022-10-11T10:05:16.691Z,15.97
2022-10-11T10:08:04.558Z,16.05
2022-10-11T10:10:43.946Z,16.14
2022-10-11T10:13:39.289Z,16.24
2022-10-11T10:16:08.880Z,16.35
2022-10-11T10:18:42.721Z,16.37
2022-10-11T10:21:14.681Z,16.42
2022-10-11T10:23:42.244Z,16.43
2022-10-11T10:26:30.937Z,16.43
2022-10-11T10:29:16.812Z,16.37
2022-10-11T10:32:12.880Z,16.35
2022-10-11T10:34:41.554Z,16.32
2022-10-11T10:37:32.427Z,16.32
2022-10-11T10:40:17.487Z,16.44
2022-10-11T10:42:44.512Z,16.58
2022-10-11T10:45:21.152Z,16.67
2022-10-11T10:48:22.344Z,16.72
2022-10-11T10:51:10.631Z,16.75
2022-10-11T10:53:49.804Z,16.90
2022-10-11T10:56:28.074Z,16.94
2022-10-11T10:59:19.765Z,17.16
2022-10-11T11:02:11.086Z,17.17
2022-10-11T11:05:08.683Z,17.26
2022-10-11T11:07:51.786Z,17.37
2022-10-11T11:10:25.576Z,17.48
2022-10-11T11:12:55.203Z,17.59
2022-10-11T11:15:26.499Z,17.57
2022-10-11T11:18:03.776Z,17.55
2022-10-11T11:21:05.313Z,17.46
2022-10-11T11:24:16.856Z,17.38
2022-10-11T11:27:01.701Z,17.41
2022-10-11T11:29:53.210Z,17.32
2022-10-11T11:32:46.945Z,17.13
2022-10-11T11:35:52.971Z,17.06
2022-10-11T11:38:46.144Z,17.18
2022-10-11T11:41:26.202Z,17.28
2022-10-11T11:43:56.232Z,17.33
2022-10-11T11:46:29.122Z,17.33
2022-10-11T11:49:00.519Z,17.40
2022-10-11T11:51:44.058Z,17.38
2022-10-11T11:54:29.763Z,17.39
2022-10-11T11:57:02.640Z,17.41
2022-10-11T11:59:51.696Z,17.28
2022-10-11T12:02:24.481Z,17.07
2022-10-11T12:04:52.383Z,17.03
2022-10-11T12:07:25.044Z,17.01
2022-10-11T12:09:55.395Z,16.88
2022-10-11T12:12:37.581Z,16.84
2022-10-11T12:15:19.952Z,16.81
2022-10-11T12:17:58.676Z,16.71
2022-10-11T12:20:25.511Z,16.68
2022-10-11T12:22:56.318Z,16.66
2022-10-11T12:25:23.122Z,16.67
2022-10-11T12:27:58.695Z,16.67
2022-10-11T12:30:44.569Z,16.67
2022-10-11T12:33:31.028Z,16.64
2022-10-11T12:36:23.932Z,16.58
2022-10-11T12:39:18.416Z,16.56
2022-10-11T12:41:48.236Z,16.49
2022-10-11T12:44:29.104Z,16.46
2022-10-11T12:47:00.570Z,16.46
2022-10-11T12:49:36.479Z,16.47
2022-10-11T12:52:16.923Z,16.48
2022-10-11T12:54:56.066Z,16.50
2022-10-11T12:58:06.346Z,16.47
2022-10-11T13:00:40.819Z,16.39
2022-10-11T13:03:34.818Z,16.36
2022-10-11T13:06:25.163Z,16.31
2022-10-11T13:09:06.949Z,16.31
2022-10-11T13:11:39.208Z,16.25
2022-10-11T13:14:16.141Z,16.27
2022-10-11T13:16:48.486Z,16.25
2022-10-11T13:19:15.978Z,16.24
2022-10-11T13:21:43.730Z,16.19
2022-10-11T13:24:15.126Z,16.18
2022-10-11T13:26:44.346Z,16.17
2022-10-11T13:29:17.428Z,16.10
2022-10-11T13:31:48.374Z,16.04
2022-10-11T13:34:19.720Z,16.07
2022-10-11T13:36:55.485Z,16.03
2022-10-11T13:39:37.537Z,16.00
2022-10-11T13:42:11.952Z,16.00
2022-10-11T13:44:39.767Z,15.98
2022-10-11T13:47:07.094Z,15.92
2022-10-11T13:49:42.854Z,15.93
2022-10-11T13:52:18.611Z,15.94
2022-10-11T13:55:00.912Z,15.93
2022-10-11T13:57:38.584Z,15.89
2022-10-11T14:00:15.117Z,15.78
2022-10-11T14:02:53.495Z,15.73
2022-10-11T14:05:34.124Z,15.74
2022-10-11T14:08:26.558Z,15.73
2022-10-11T14:10:57.181Z,15.74
2022-10-11T14:13:24.718Z,15.73
2022-10-11T14:16:07.509Z,15.70
2022-10-11T14:18:43.020Z,15.70
2022-10-11T14:21:31.642Z,15.66
2022-10-11T14:24:10.714Z,15.62
2022-10-11T14:26:39.180Z,15.58
2022-10-11T14:29:11.612Z,15.54
2022-10-11T14:31:42.025Z,15.49
2022-10-11T14:34:16.731Z,15.47
2022-10-11T14:36:43.540Z,15.43
2022-10-11T14:39:15.406Z,15.50
2022-10-11T14:41:42.840Z,15.48
2022-10-11T14:44:09.730Z,15.49
2022-10-11T14:46:38.722Z,15.45
2022-10-11T14:49:14.479Z,15.47
2022-10-11T14:51:42.071Z,15.45
2022-10-11T14:54:12.302Z,15.45
2022-10-11T14:56:39.424Z,15.47
2022-10-11T14:59:06.809Z,15.46
2022-10-11T15:01:34.111Z,15.44
2022-10-11T15:04:04.601Z,15.40
2022-10-11T15:06:37.033Z,15.41
2022-10-11T15:09:05.324Z,15.33
2022-10-11T15:11:32.334Z,15.31
2022-10-11T15:13:59.656Z,15.26
2022-10-11T15:16:27.746Z,15.27
2022-10-11T15:18:54.565Z,15.20
2022-10-11T15:21:24.390Z,15.19
2022-10-11T15:23:52.394Z,15.16
2022-10-11T15:26:25.483Z,15.14
2022-10-11T15:28:54.219Z,15.10
2022-10-11T15:31:21.772Z,15.10
2022-10-11T15:33:49.043Z,15.10
2022-10-11T15:36:20.178Z,15.08
2022-10-11T15:38:48.326Z,15.07
2022-10-11T15:41:16.875Z,15.01
2022-10-11T15:43:47.342Z,14.93
2022-10-11T15:46:22.526Z,14.93
2022-10-11T15:48:50.884Z,14.96
2022-10-11T15:51:17.858Z,14.86
2022-10-11T15:53:44.976Z,14.93
2022-10-11T15:56:18.894Z,14.92
2022-10-11T15:58:46.576Z,14.87
2022-10-11T16:01:20.671Z,14.81
2022-10-11T16:03:50.145Z,14.85
2022-10-11T16:06:18.954Z,14.84
2022-10-11T16:08:46.230Z,14.82
2022-10-11T16:11:13.706Z,14.79
2022-10-11T16:13:40.875Z,14.80
2022-10-11T16:16:09.710Z,14.80
2022-10-11T16:18:37.107Z,14.77
2022-10-11T16:21:10.009Z,14.73
2022-10-11T16:23:37.966Z,14.68
2022-10-11T16:26:08.130Z,14.70
2022-10-11T16:28:35.876Z,14.67
2022-10-11T16:31:07.823Z,14.62
2022-10-11T16:33:34.698Z,14.58
2022-10-11T16:36:25.705Z,14.63
2022-10-11T16:38:52.527Z,14.62
2022-10-11T16:41:20.348Z,14.58
2022-10-11T16:43:51.226Z,14.57
2022-10-11T16:46:18.965Z,14.57
2022-10-11T16:48:45.983Z,14.49
2022-10-11T16:51:12.837Z,14.54
2022-10-11T16:53:39.943Z,14.48
2022-10-11T16:56:08.547Z,14.45
2022-10-11T16:58:39.122Z,14.40
2022-10-11T17:01:10.864Z,14.38
2022-10-11T17:03:38.756Z,14.39
2022-10-11T17:06:06.675Z,14.34
2022-10-11T17:08:35.552Z,14.33
2022-10-11T17:11:02.713Z,14.29
2022-10-11T17:13:29.749Z,14.25
2022-10-11T17:15:57.284Z,14.24
2022-10-11T17:18:24.150Z,14.23
2022-10-11T17:20:51.223Z,14.19
2022-10-11T17:23:18.104Z,14.19
2022-10-11T17:25:46.676Z,14.15
2022-10-11T17:28:13.960Z,14.15
2022-10-11T17:30:42.130Z,14.13
2022-10-11T17:33:09.284Z,14.10
2022-10-11T17:35:36.414Z,14.15
2022-10-11T17:38:06.337Z,14.15
2022-10-11T17:40:33.423Z,14.15
2022-10-11T17:43:00.324Z,14.14
2022-10-11T17:45:27.339Z,14.13
2022-10-11T17:47:54.452Z,14.08
2022-10-11T17:50:21.399Z,14.12
2022-10-11T17:52:49.202Z,14.10
2022-10-11T17:55:16.475Z,14.16
2022-10-11T17:57:43.871Z,14.15
2022-10-11T18:00:11.314Z,14.14
2022-10-11T18:02:40.349Z,14.15
2022-10-11T18:05:08.192Z,14.12
2022-10-11T18:07:35.057Z,14.13
2022-10-11T18:10:01.976Z,14.10
2022-10-11T18:12:28.893Z,14.10
2022-10-11T18:14:55.673Z,14.05
2022-10-11T18:17:22.534Z,13.90
2022-10-11T18:19:49.440Z,13.96
2022-10-11T18:22:16.246Z,13.91
2022-10-11T18:24:43.067Z,13.90
2022-10-11T18:27:09.856Z,13.88
2022-10-11T18:29:36.765Z,13.85
2022-10-11T18:32:03.680Z,13.90
2022-10-11T18:34:30.527Z,13.86
2022-10-11T18:36:57.262Z,13.88
2022-10-11T18:39:24.234Z,13.87
2022-10-11T18:41:51.094Z,13.87
2022-10-11T18:44:18.099Z,13.78
2022-10-11T18:46:45.592Z,13.68
2022-10-11T18:49:13.626Z,13.63
2022-10-11T18:51:42.389Z,13.53
2022-10-11T18:54:13.894Z,13.49
2022-10-11T18:56:44.014Z,13.43
2022-10-11T18:59:11.171Z,13.38
2022-10-11T19:01:40.707Z,13.38
2022-10-11T19:04:11.964Z,13.33
2022-10-11T19:06:41.377Z,13.32
2022-10-11T19:09:13.962Z,13.26
2022-10-11T19:11:41.941Z,13.26
2022-10-11T19:14:11.643Z,13.24
2022-10-11T19:16:41.991Z,13.22
2022-10-11T19:19:11.489Z,13.21
2022-10-11T19:21:39.218Z,13.21
2022-10-11T19:24:06.408Z,13.21
2022-10-11T19:26:36.851Z,13.21
2022-10-11T19:29:15.511Z,13.22
2022-10-11T19:31:44.999Z,13.21
2022-10-11T19:34:12.098Z,13.22
2022-10-11T19:36:39.296Z,13.17
2022-10-11T19:39:06.437Z,13.14
2022-10-11T19:41:33.478Z,13.18
2022-10-11T19:44:00.336Z,13.15
2022-10-11T19:46:49.940Z,13.13
2022-10-11T19:49:17.674Z,13.15
2022-10-11T19:51:44.891Z,13.12
2022-10-11T19:54:13.743Z,13.13
2022-10-11T19:56:41.080Z,13.10
2022-10-11T19:59:08.311Z,13.08
2022-10-11T20:01:36.446Z,13.06
2022-10-11T20:04:06.476Z,13.07
2022-10-11T20:06:38.338Z,13.05
2022-10-11T20:09:28.031Z,13.05
2022-10-11T20:11:53.982Z,13.01
2022-10-11T20:14:20.843Z,13.02
2022-10-11T20:16:50.417Z,13.02
2022-10-11T20:19:17.700Z,13.03
2022-10-11T20:21:45.342Z,12.99
2022-10-11T20:24:12.902Z,12.98
2022-10-11T20:26:39.842Z,13.00
2022-10-11T20:29:07.103Z,12.99
2022-10-11T20:31:38.220Z,13.01
2022-10-11T20:34:07.549Z,13.04
2022-10-11T20:36:36.387Z,13.08
2022-10-11T20:39:05.316Z,13.05
2022-10-11T20:41:39.955Z,13.03
2022-10-11T20:44:07.991Z,13.00
2022-10-11T20:46:37.646Z,12.98
2022-10-11T20:49:10.534Z,12.98
2022-10-11T20:51:39.214Z,13.00
2022-10-11T20:54:06.267Z,12.97
2022-10-11T20:56:33.963Z,12.95
2022-10-11T20:59:01.660Z,12.95
2022-10-11T21:01:31.926Z,12.98
2022-10-11T21:04:00.388Z,12.92
2022-10-11T21:06:29.990Z,12.88
2022-10-11T21:08:59.164Z,12.77
2022-10-11T21:11:35.204Z,12.74
2022-10-11T21:14:04.071Z,12.70
2022-10-11T21:16:31.550Z,12.73
2022-10-11T21:19:00.352Z,12.63
2022-10-11T21:21:28.536Z,12.61
2022-10-11T21:24:00.946Z,12.63
2022-10-11T21:26:28.592Z,12.55
2022-10-11T21:28:55.670Z,12.55
2022-10-11T21:31:23.388Z,12.54
2022-10-11T21:33:50.395Z,12.52
2022-10-11T21:36:22.713Z,12.49
2022-10-11T21:38:50.530Z,12.51
2022-10-11T21:41:23.335Z,12.48
2022-10-11T21:43:50.249Z,12.47
2022-10-11T21:46:20.613Z,12.43
2022-10-11T21:48:50.112Z,12.37
2022-10-11T21:51:27.075Z,12.34
2022-10-11T21:53:55.181Z,12.27
2022-10-11T21:56:22.416Z,12.26
2022-10-11T21:58:50.338Z,12.24
2022-10-11T22:01:18.796Z,12.24
2022-10-11T22:03:46.865Z,12.24
2022-10-11T22:06:14.399Z,12.20
2022-10-11T22:08:41.878Z,12.16
2022-10-11T22:11:09.095Z,12.12
2022-10-11T22:13:36.160Z,12.09
2022-10-11T22:16:08.126Z,12.10
2022-10-11T22:18:35.009Z,12.08
2022-10-11T22:21:08.093Z,12.09
2022-10-11T22:23:34.996Z,12.10
2022-10-11T22:26:16.382Z,12.11
2022-10-11T22:28:43.871Z,12.06
2022-10-11T22:31:10.959Z,12.00
2022-10-11T22:33:37.957Z,11.99
2022-10-11T22:36:08.835Z,12.03
2022-10-11T22:38:37.338Z,12.05
2022-10-11T22:41:04.165Z,12.10
2022-10-11T22:43:31.182Z,12.09
2022-10-11T22:45:57.967Z,12.02
2022-10-11T22:48:24.804Z,12.02
2022-10-11T22:50:51.680Z,11.97
2022-10-11T22:53:18.837Z,11.96
2022-10-11T22:55:45.634Z,11.96
2022-10-11T22:58:12.443Z,11.95
2022-10-11T23:00:39.571Z,11.96
2022-10-11T23:03:07.540Z,11.96
2022-10-11T23:05:37.228Z,12.03
2022-10-11T23:08:04.051Z,12.05
2022-10-11T23:10:30.866Z,12.08
2022-10-11T23:12:57.691Z,12.08
2022-10-11T23:15:24.527Z,12.06
2022-10-11T23:17:51.284Z,12.09
2022-10-11T23:20:18.145Z,12.12
2022-10-11T23:22:44.970Z,12.12
2022-10-11T23:25:11.839Z,12.08
2022-10-11T23:27:39.054Z,12.11
2022-10-11T23:30:06.574Z,12.08
2022-10-11T23:32:33.415Z,12.08
2022-10-11T23:35:00.230Z,12.07
2022-10-11T23:37:27.073Z,12.16
2022-10-11T23:39:53.894Z,12.22
2022-10-11T23:42:20.682Z,12.25
2022-10-11T23:44:47.471Z,12.25
2022-10-11T23:47:14.253Z,12.27
2022-10-11T23:49:41.085Z,12.27
2022-10-11T23:52:07.818Z,12.31
2022-10-11T23:54:34.591Z,12.33
2022-10-11T23:57:01.367Z,12.31
2022-10-11T23:59:28.139Z,12.33
